Airfield :
LOGIN :

Register | Disclaimer

   EN    FR    IT 

 










Legend :    VFR   Marginal VFR   IFR   Intensive IFR   Very Intensive IFR
Visi :
Ceiling :
>= 8 km
>= 3000ft
5 to 8 km
1000 to 3000 ft
1500m to 5 km
500 to 1000 ft
800 to 1500m
200 to 500 ft
< 800m
< 200 ft
Symbols :   Thunderstorms  Fog  Heavy snow  Heavy precipitations  Wind > 20 kt
SIGMETs :     Misc.  Thunderstorms  Icing  Turbulence  Mountain Waves  Volcanic Ashes






- Airport Elevation : 456 ft
- IATA code : QPZ


LIMS - San Damiano Air Base Piacenza

CURRENT METAR :
  • 241155Z 10004KT 3200 BR SCT004 BKN006 08/08 Q1006 RMK OVC VIS MIN 3200 WIND THR30 08003KT YLO

EXPIRED METARs :
  • 241055Z 06003KT 1800 BR BKN003 08/08 Q1006
  • 241017Z 06004KT 1200 R30//// R12//// BR SCT002 08/08 Q1006 RMK BKN SCT200 VIS MIN 1200 WIND THR30 03003KT AMB
  • 240955Z 36003KT 1800 BR FEW003 07/07 Q1006 RMK SCT SCT200 VIS MAX W 4 KM VIS MIN 1600E WIND THR30 04003KT YLO
  • 240912Z 01005KT 1200 R30//// R12//// BR SCT002 06/06 Q1005 RMK SCT VIS MIN 1200 WIND THR30 02005KT AMB
  • 240855Z 10001KT 3500 BR FEW002 06/06 Q1005 RMK FEW VIS MIN 3500 WIND THR30 VRB01KT YLO
  • 240828Z 08007KT 030V120 4500 1800E BR FEW002 06/06 Q1005 RMK FEW VIS MIN 1800E WIND THR30 06005KT YLO
  • 240755Z 32003KT 9999 2200E FEW001 06/06 Q1004

Expired Forecast.



MET'MAP, your aeronautical weather chart ! - Copyright ORBIFLY December 2007 - Disclaimer

ORBIFLY MET'MAP TEAM :

Programming & Development : Alexandra Zaïnal
Original concept : Baudouin d'Aumeries
Technical & hardware support : Manuel Goepfert
Assistance : Marc-Olivier Méhu




SOURCES & CREDITS :

   NOAA